Time;durP1;ratioP1;P1;durP2;ratioP2;P2;SDS_P1;SDS_P2;PMS_P1;PMS_P2;Temp;Humidity;BMP_temperature;BMP_pressure;BME280_temperature;BME280_humidity;BME280_pressure;Samples;Min_cycle;Max_cycle;Signal;HPM_P1;HPM_P2
2022/03/16 00:00:08;;;;;;;;;21.25;6.25;;;;;;;;5079913;27;51436;-48
2022/03/16 00:03:09;;;;;;;;;13.00;9.50;;;;;;;;5080098;27;51135;-48
2022/03/16 00:05:54;;;;;;;;;13.50;8.75;;;;;;;;5080132;27;51085;-49
2022/03/16 00:08:44;;;;;;;;;21.50;11.00;;;;;;;;5079620;27;51113;-48
2022/03/16 00:11:28;;;;;;;;;14.75;9.50;;;;;;;;5080205;27;51106;-51
2022/03/16 00:14:12;;;;;;;;;14.75;10.75;;;;;;;;5080092;27;51111;-52
2022/03/16 00:16:58;;;;;;;;;19.25;11.50;;;;;;;;5080006;27;52055;-49
2022/03/16 00:19:44;;;;;;;;;14.50;10.75;;;;;;;;5079670;27;51544;-49
2022/03/16 00:22:28;;;;;;;;;17.00;11.00;;;;;;;;5080338;27;51074;-50
2022/03/16 00:25:14;;;;;;;;;20.25;11.00;;;;;;;;5079619;27;51564;-49
2022/03/16 00:28:01;;;;;;;;;13.50;8.50;;;;;;;;5079657;27;51140;-50
2022/03/16 00:30:47;;;;;;;;;10.75;5.00;;;;;;;;5079470;27;51135;-48
2022/03/16 00:33:34;;;;;;;;;16.25;8.25;;;;;;;;5078888;27;51077;-49
2022/03/16 00:36:24;;;;;;;;;16.25;10.50;;;;;;;;5079555;27;51493;-46
2022/03/16 00:39:08;;;;;;;;;18.25;11.75;;;;;;;;5079537;27;51025;-52
2022/03/16 00:41:54;;;;;;;;;15.00;9.50;;;;;;;;5079382;27;51201;-51
2022/03/16 00:44:59;;;;;;;;;15.25;10.25;;;;;;;;5079284;27;51056;-50
2022/03/16 00:47:44;;;;;;;;;14.25;10.50;;;;;;;;5079354;27;51041;-48
2022/03/16 00:50:44;;;;;;;;;16.50;11.00;;;;;;;;5078952;28;51199;-48
2022/03/16 00:53:41;;;;;;;;;15.75;8.50;;;;;;;;5079299;28;51225;-47
2022/03/16 00:56:27;;;;;;;;;13.75;9.50;;;;;;;;5079416;28;51528;-50
2022/03/16 00:59:11;;;;;;;;;15.75;11.25;;;;;;;;5056850;28;50969;-50
2022/03/16 01:02:04;;;;;;;;;20.00;11.00;;;;;;;;5058824;28;51011;-51
2022/03/16 01:05:10;;;;;;;;;17.25;9.00;;;;;;;;5059210;28;51352;-50
2022/03/16 01:07:57;;;;;;;;;12.75;10.25;;;;;;;;5060787;28;51375;-53
2022/03/16 01:10:42;;;;;;;;;19.75;9.25;;;;;;;;5062814;28;51094;-50
2022/03/16 01:13:26;;;;;;;;;17.75;10.75;;;;;;;;5063239;28;51093;-47
2022/03/16 01:16:12;;;;;;;;;15.50;10.75;;;;;;;;5062594;28;51581;-51
2022/03/16 01:19:00;;;;;;;;;13.25;9.00;;;;;;;;5061611;28;51135;-51
2022/03/16 01:21:45;;;;;;;;;15.25;10.25;;;;;;;;5062954;28;51143;-48
2022/03/16 01:24:30;;;;;;;;;14.75;9.00;;;;;;;;5061913;28;51179;-48
2022/03/16 01:27:17;;;;;;;;;12.00;9.25;;;;;;;;5062246;28;51397;-50
2022/03/16 01:30:06;;;;;;;;;15.25;9.00;;;;;;;;5062767;28;51113;-50
2022/03/16 01:32:51;;;;;;;;;18.00;8.75;;;;;;;;5061768;28;51575;-52
2022/03/16 01:35:36;;;;;;;;;15.25;11.25;;;;;;;;5062479;28;51082;-52
2022/03/16 01:38:22;;;;;;;;;9.50;5.50;;;;;;;;5062794;28;51130;-53
2022/03/16 01:41:08;;;;;;;;;19.00;11.25;;;;;;;;5062095;28;51463;-52
2022/03/16 01:44:05;;;;;;;;;10.25;7.00;;;;;;;;5082694;27;51113;-51
2022/03/16 01:46:49;;;;;;;;;21.50;13.25;;;;;;;;5064529;27;52968;-50
2022/03/16 01:49:38;;;;;;;;;13.75;10.50;;;;;;;;5062581;28;51060;-50
2022/03/16 01:52:29;;;;;;;;;10.25;8.00;;;;;;;;5061810;28;51214;-50
2022/03/16 01:55:18;;;;;;;;;14.25;9.50;;;;;;;;5062039;28;51097;-51
2022/03/16 01:58:02;;;;;;;;;15.25;10.75;;;;;;;;5062058;28;51210;-49
2022/03/16 02:00:51;;;;;;;;;16.00;9.00;;;;;;;;5061866;28;51085;-50
2022/03/16 02:03:37;;;;;;;;;15.25;10.00;;;;;;;;5062485;28;51050;-51
2022/03/16 02:06:27;;;;;;;;;14.75;8.00;;;;;;;;5061545;28;51550;-52
2022/03/16 02:09:12;;;;;;;;;17.00;10.00;;;;;;;;5061823;28;51204;-51
2022/03/16 02:11:56;;;;;;;;;17.75;12.25;;;;;;;;5062219;28;51489;-49
2022/03/16 02:14:40;;;;;;;;;19.00;11.50;;;;;;;;5061968;28;51020;-53
2022/03/16 02:17:26;;;;;;;;;12.25;6.00;;;;;;;;5061398;28;51374;-49
2022/03/16 02:20:11;;;;;;;;;17.00;8.50;;;;;;;;5067181;27;51326;-50
2022/03/16 02:22:55;;;;;;;;;17.50;9.75;;;;;;;;5067428;27;51412;-50
2022/03/16 02:25:50;;;;;;;;;13.50;8.75;;;;;;;;5058819;28;51157;-53
2022/03/16 02:28:35;;;;;;;;;15.75;8.50;;;;;;;;5061919;28;50972;-48
2022/03/16 02:31:25;;;;;;;;;12.50;7.75;;;;;;;;5061340;28;51035;-50
2022/03/16 02:34:10;;;;;;;;;6.25;4.00;;;;;;;;5061483;28;50951;-50
2022/03/16 02:36:55;;;;;;;;;13.50;8.50;;;;;;;;5061417;28;51204;-52
2022/03/16 02:39:42;;;;;;;;;18.75;10.75;;;;;;;;5061660;28;51119;-52
2022/03/16 02:42:47;;;;;;;;;15.75;9.75;;;;;;;;5060937;28;51132;-48
2022/03/16 02:45:32;;;;;;;;;14.50;8.50;;;;;;;;5061151;28;51144;-47
2022/03/16 02:48:16;;;;;;;;;21.00;10.25;;;;;;;;5061332;28;51126;-48
2022/03/16 02:51:03;;;;;;;;;17.50;13.75;;;;;;;;5061171;28;51096;-48
2022/03/16 02:54:00;;;;;;;;;11.50;8.25;;;;;;;;5061418;28;51171;-47
2022/03/16 02:56:46;;;;;;;;;16.25;10.75;;;;;;;;5060604;28;51269;-48
2022/03/16 02:59:31;;;;;;;;;13.50;9.00;;;;;;;;5060827;28;51118;-51
2022/03/16 03:02:18;;;;;;;;;14.50;10.50;;;;;;;;5060470;28;51172;-52
2022/03/16 03:05:06;;;;;;;;;11.50;7.50;;;;;;;;5062479;27;51128;-49
2022/03/16 03:07:55;;;;;;;;;13.75;8.25;;;;;;;;5060593;28;51493;-50
2022/03/16 03:10:40;;;;;;;;;20.50;9.00;;;;;;;;5059929;28;50993;-47
2022/03/16 03:13:28;;;;;;;;;15.50;9.50;;;;;;;;5061046;28;51350;-51
2022/03/16 03:16:17;;;;;;;;;11.25;10.00;;;;;;;;5060711;28;51056;-50
2022/03/16 03:19:16;;;;;;;;;15.50;8.50;;;;;;;;5061196;27;51125;-51
2022/03/16 03:22:00;;;;;;;;;17.25;10.75;;;;;;;;5058510;27;51534;-50
2022/03/16 03:24:45;;;;;;;;;15.00;9.00;;;;;;;;5060199;28;51137;-51
2022/03/16 03:27:34;;;;;;;;;8.50;8.25;;;;;;;;5060262;28;51147;-48
2022/03/16 03:30:20;;;;;;;;;16.25;9.75;;;;;;;;5059679;28;51149;-50
2022/03/16 03:33:09;;;;;;;;;21.00;8.50;;;;;;;;5060108;28;51347;-49
2022/03/16 03:35:56;;;;;;;;;19.00;11.50;;;;;;;;5060130;28;51179;-50
2022/03/16 03:38:42;;;;;;;;;15.00;9.00;;;;;;;;5060472;28;51118;-51
2022/03/16 03:41:28;;;;;;;;;7.50;5.50;;;;;;;;5060137;28;51014;-50
2022/03/16 03:44:15;;;;;;;;;17.50;7.75;;;;;;;;5060638;27;51179;-51
2022/03/16 03:47:03;;;;;;;;;20.75;11.25;;;;;;;;5079744;27;51436;-49
2022/03/16 03:49:59;;;;;;;;;13.75;10.00;;;;;;;;5080202;27;51173;-51
2022/03/16 03:52:44;;;;;;;;;12.25;9.00;;;;;;;;5080577;27;51067;-49
2022/03/16 03:55:29;;;;;;;;;19.00;11.00;;;;;;;;5080306;27;51207;-49
2022/03/16 03:58:17;;;;;;;;;16.00;8.75;;;;;;;;5079929;27;51393;-48
2022/03/16 04:01:03;;;;;;;;;15.50;11.50;;;;;;;;5080140;27;51133;-50
2022/03/16 04:03:49;;;;;;;;;11.25;9.75;;;;;;;;5080041;27;51381;-48
2022/03/16 04:06:36;;;;;;;;;14.25;10.00;;;;;;;;5079776;27;51057;-49
2022/03/16 04:09:25;;;;;;;;;12.50;7.50;;;;;;;;5080252;27;51105;-49
2022/03/16 04:12:09;;;;;;;;;12.00;8.50;;;;;;;;5079684;27;51492;-50
2022/03/16 04:14:54;;;;;;;;;14.50;8.25;;;;;;;;5080004;27;51146;-52
2022/03/16 04:17:57;;;;;;;;;11.25;8.25;;;;;;;;5079927;27;51183;-51
2022/03/16 04:20:53;;;;;;;;;13.75;11.75;;;;;;;;5066978;27;50999;-51
2022/03/16 04:23:40;;;;;;;;;12.00;7.00;;;;;;;;5058508;28;51186;-50
2022/03/16 04:26:24;;;;;;;;;17.50;10.00;;;;;;;;5059340;28;51170;-49
2022/03/16 04:29:14;;;;;;;;;15.00;9.50;;;;;;;;5059557;28;51145;-50
2022/03/16 04:32:00;;;;;;;;;15.75;9.00;;;;;;;;5053778;28;51227;-49
2022/03/16 04:34:47;;;;;;;;;20.50;9.50;;;;;;;;5053744;28;51115;-49
2022/03/16 04:37:33;;;;;;;;;15.75;10.00;;;;;;;;5058953;28;51214;-49
2022/03/16 04:40:27;;;;;;;;;18.25;11.50;;;;;;;;5070148;27;51136;-49
2022/03/16 04:43:12;;;;;;;;;13.00;9.25;;;;;;;;5079210;27;51125;-47
2022/03/16 04:45:59;;;;;;;;;13.25;9.00;;;;;;;;5079690;27;51103;-50
2022/03/16 04:48:45;;;;;;;;;17.00;13.25;;;;;;;;5079527;28;51350;-49
2022/03/16 04:51:29;;;;;;;;;19.25;10.25;;;;;;;;5051223;28;51794;-51
2022/03/16 04:54:14;;;;;;;;;15.25;8.50;;;;;;;;5059312;28;51317;-50
2022/03/16 04:57:01;;;;;;;;;20.75;12.25;;;;;;;;5058902;28;51099;-50
2022/03/16 05:00:05;;;;;;;;;17.75;10.50;;;;;;;;5059431;28;51031;-49
2022/03/16 05:02:55;;;;;;;;;19.50;11.00;;;;;;;;5058904;28;51066;-51
2022/03/16 05:05:50;;;;;;;;;16.75;10.75;;;;;;;;5059061;28;51183;-49
2022/03/16 05:08:45;;;;;;;;;21.00;12.00;;;;;;;;5057672;28;51141;-51
2022/03/16 05:11:31;;;;;;;;;22.50;14.75;;;;;;;;5059080;28;51126;-48
2022/03/16 05:14:17;;;;;;;;;19.75;9.25;;;;;;;;5071396;28;51149;-48
2022/03/16 05:17:06;;;;;;;;;16.50;14.50;;;;;;;;5079158;28;51096;-49
2022/03/16 05:19:56;;;;;;;;;18.00;12.75;;;;;;;;5059988;28;51526;-51
2022/03/16 05:22:51;;;;;;;;;15.50;12.00;;;;;;;;5058473;28;51051;-52
2022/03/16 05:25:39;;;;;;;;;19.75;15.50;;;;;;;;5059008;28;51173;-51
2022/03/16 05:28:25;;;;;;;;;17.50;10.25;;;;;;;;5054743;28;51599;-51
2022/03/16 05:31:09;;;;;;;;;21.75;12.25;;;;;;;;5058576;28;51474;-49
2022/03/16 05:33:54;;;;;;;;;12.00;7.75;;;;;;;;5058612;28;51077;-49
2022/03/16 05:36:38;;;;;;;;;23.00;15.75;;;;;;;;5058897;28;51116;-50
2022/03/16 05:39:23;;;;;;;;;17.75;12.75;;;;;;;;5058557;28;51105;-52
2022/03/16 05:42:10;;;;;;;;;25.50;13.25;;;;;;;;5058709;28;51174;-50
2022/03/16 05:44:57;;;;;;;;;38.25;28.00;;;;;;;;5055869;28;51197;-50
2022/03/16 05:47:42;;;;;;;;;24.75;13.25;;;;;;;;5058189;28;51222;-49
2022/03/16 05:50:28;;;;;;;;;18.50;12.75;;;;;;;;5059083;28;50964;-50
2022/03/16 05:53:19;;;;;;;;;15.50;6.25;;;;;;;;5058966;28;51368;-51
2022/03/16 05:56:05;;;;;;;;;19.25;12.50;;;;;;;;5061073;28;51533;-47
2022/03/16 05:58:50;;;;;;;;;21.00;15.00;;;;;;;;5062124;28;51181;-51
2022/03/16 06:01:35;;;;;;;;;27.50;14.75;;;;;;;;5062464;28;51191;-49
2022/03/16 06:04:21;;;;;;;;;25.50;14.00;;;;;;;;5060779;28;51546;-49
2022/03/16 06:07:09;;;;;;;;;19.50;13.00;;;;;;;;5061740;28;51228;-50
2022/03/16 06:10:02;;;;;;;;;16.75;12.75;;;;;;;;5061651;28;51657;-50
2022/03/16 06:12:50;;;;;;;;;18.75;13.00;;;;;;;;5061795;28;51187;-51
2022/03/16 06:15:39;;;;;;;;;19.75;15.25;;;;;;;;5063359;27;51301;-50
2022/03/16 06:18:28;;;;;;;;;22.50;15.50;;;;;;;;5081567;27;51551;-48
2022/03/16 06:21:13;;;;;;;;;19.25;14.25;;;;;;;;5054689;27;51134;-51
2022/03/16 06:24:03;;;;;;;;;22.75;18.00;;;;;;;;5081893;27;51062;-47
2022/03/16 06:26:49;;;;;;;;;20.00;15.75;;;;;;;;5081965;27;51156;-51
2022/03/16 06:29:33;;;;;;;;;19.25;12.00;;;;;;;;5081317;27;51706;-51
2022/03/16 06:32:20;;;;;;;;;21.75;14.25;;;;;;;;5071950;27;51125;-49
2022/03/16 06:35:09;;;;;;;;;35.75;26.00;;;;;;;;5061317;28;51481;-51
2022/03/16 06:37:54;;;;;;;;;25.00;21.50;;;;;;;;5061367;28;51082;-49
2022/03/16 06:40:49;;;;;;;;;27.75;24.00;;;;;;;;5057040;28;51156;-51
2022/03/16 06:43:33;;;;;;;;;45.00;30.50;;;;;;;;5078485;27;51197;-49
2022/03/16 06:46:17;;;;;;;;;34.00;25.50;;;;;;;;5073656;27;51164;-53
2022/03/16 06:49:04;;;;;;;;;29.25;25.00;;;;;;;;5050640;28;51133;-49
2022/03/16 06:51:50;;;;;;;;;20.50;14.00;;;;;;;;5049460;28;51179;-51
2022/03/16 06:54:42;;;;;;;;;33.00;23.25;;;;;;;;5049670;28;51086;-50
2022/03/16 06:57:29;;;;;;;;;29.25;19.00;;;;;;;;5048015;28;51426;-49
2022/03/16 07:00:15;;;;;;;;;31.25;21.50;;;;;;;;5045373;28;51456;-51
2022/03/16 07:03:11;;;;;;;;;34.50;20.25;;;;;;;;5048374;28;51110;-49
2022/03/16 07:06:05;;;;;;;;;44.50;29.50;;;;;;;;5046172;28;51174;-51
2022/03/16 07:08:51;;;;;;;;;33.75;23.75;;;;;;;;5046334;28;51086;-49
2022/03/16 07:11:45;;;;;;;;;42.50;24.25;;;;;;;;5046528;28;51675;-50
2022/03/16 07:14:32;;;;;;;;;32.00;20.75;;;;;;;;5050651;28;51015;-50
2022/03/16 07:17:18;;;;;;;;;22.50;10.75;;;;;;;;5058024;28;50972;-50
2022/03/16 07:20:06;;;;;;;;;33.50;23.25;;;;;;;;5060466;27;51431;-51
2022/03/16 07:23:11;;;;;;;;;40.50;20.75;;;;;;;;5059474;28;51135;-48
2022/03/16 07:25:56;;;;;;;;;33.75;25.00;;;;;;;;5060474;28;51191;-52
2022/03/16 07:28:40;;;;;;;;;40.00;27.00;;;;;;;;5060302;28;51166;-52
2022/03/16 07:31:29;;;;;;;;;33.25;24.00;;;;;;;;5060943;28;51327;-51
2022/03/16 07:34:24;;;;;;;;;36.75;23.50;;;;;;;;5057333;28;51519;-49
2022/03/16 07:37:23;;;;;;;;;41.50;24.75;;;;;;;;5053313;28;51133;-53
2022/03/16 07:40:08;;;;;;;;;34.75;20.50;;;;;;;;5059708;28;51146;-49
2022/03/16 07:42:55;;;;;;;;;31.00;18.50;;;;;;;;5058483;28;51046;-49
2022/03/16 07:45:50;;;;;;;;;32.75;21.75;;;;;;;;5059839;28;51138;-47
2022/03/16 07:48:39;;;;;;;;;42.50;23.50;;;;;;;;5066268;27;51147;-51
2022/03/16 07:51:25;;;;;;;;;31.75;22.00;;;;;;;;5076113;27;51464;-49
2022/03/16 07:54:10;;;;;;;;;33.75;25.50;;;;;;;;5079808;27;51116;-52
2022/03/16 07:57:01;;;;;;;;;42.50;31.00;;;;;;;;5080398;27;51081;-50
2022/03/16 07:59:48;;;;;;;;;41.50;27.25;;;;;;;;5059958;27;51047;-49
2022/03/16 08:02:36;;;;;;;;;34.75;26.25;;;;;;;;5059311;28;51188;-53
2022/03/16 08:05:24;;;;;;;;;33.00;28.75;;;;;;;;5059024;28;51153;-51
2022/03/16 08:08:11;;;;;;;;;35.00;27.75;;;;;;;;5056014;28;51119;-53
2022/03/16 08:10:56;;;;;;;;;36.25;28.50;;;;;;;;5053120;28;51471;-50
2022/03/16 08:13:59;;;;;;;;;23.50;17.00;;;;;;;;5058957;28;51408;-48
2022/03/16 08:16:50;;;;;;;;;53.00;35.75;;;;;;;;5050412;27;51228;-50
2022/03/16 08:19:36;;;;;;;;;48.50;36.50;;;;;;;;5054805;28;51177;-48
2022/03/16 08:22:43;;;;;;;;;27.00;22.75;;;;;;;;5059226;28;51231;-49
2022/03/16 08:25:31;;;;;;;;;40.25;29.00;;;;;;;;5056913;28;51091;-51
2022/03/16 08:28:16;;;;;;;;;27.25;18.75;;;;;;;;5055770;28;51542;-51
2022/03/16 08:31:02;;;;;;;;;29.75;17.50;;;;;;;;5066229;27;51115;-51
2022/03/16 08:34:12;;;;;;;;;25.50;18.50;;;;;;;;5079068;27;50982;-51
2022/03/16 08:36:56;;;;;;;;;35.50;24.00;;;;;;;;5078857;27;51159;-51
2022/03/16 08:39:42;;;;;;;;;27.75;18.75;;;;;;;;5057991;27;51087;-52
2022/03/16 08:42:27;;;;;;;;;27.00;18.50;;;;;;;;5058452;28;51098;-51
2022/03/16 08:45:13;;;;;;;;;15.50;12.25;;;;;;;;5057962;28;51064;-52
2022/03/16 08:47:57;;;;;;;;;20.25;12.50;;;;;;;;5050317;28;51157;-51
2022/03/16 08:50:43;;;;;;;;;19.00;14.50;;;;;;;;5058222;28;51538;-49
2022/03/16 08:53:28;;;;;;;;;22.00;15.00;;;;;;;;5078209;28;51521;-53
2022/03/16 08:56:13;;;;;;;;;18.25;12.75;;;;;;;;5055138;28;51067;-50
2022/03/16 08:59:00;;;;;;;;;19.00;13.00;;;;;;;;5058930;28;51094;-51
2022/03/16 09:01:46;;;;;;;;;20.50;16.00;;;;;;;;5057683;28;51570;-48
2022/03/16 09:04:34;;;;;;;;;22.25;13.25;;;;;;;;5058045;28;51221;-51
2022/03/16 09:07:21;;;;;;;;;21.25;13.75;;;;;;;;5065153;28;51458;-47
2022/03/16 09:10:06;;;;;;;;;17.75;13.50;;;;;;;;5078398;28;51082;-49
2022/03/16 09:12:51;;;;;;;;;17.50;13.00;;;;;;;;5076126;28;51133;-48
2022/03/16 09:15:38;;;;;;;;;16.00;9.00;;;;;;;;5049452;28;51555;-49
2022/03/16 09:18:24;;;;;;;;;17.00;8.50;;;;;;;;5049433;28;51272;-45
2022/03/16 09:21:11;;;;;;;;;15.00;10.75;;;;;;;;5052783;28;51248;-50
2022/03/16 09:24:16;;;;;;;;;25.00;11.75;;;;;;;;5062702;28;51035;-51
2022/03/16 09:27:01;;;;;;;;;16.25;8.00;;;;;;;;5048182;28;51437;-48
2022/03/16 09:29:46;;;;;;;;;14.50;7.25;;;;;;;;5055159;28;51158;-56
2022/03/16 09:32:33;;;;;;;;;29.50;20.25;;;;;;;;5060557;28;51432;-49
2022/03/16 09:35:40;;;;;;;;;17.50;11.00;;;;;;;;5057820;28;51013;-54
2022/03/16 09:38:26;;;;;;;;;9.00;7.25;;;;;;;;5048147;28;51048;-44
2022/03/16 09:41:11;;;;;;;;;16.00;12.50;;;;;;;;5048156;28;51552;-49
2022/03/16 09:43:57;;;;;;;;;19.25;15.25;;;;;;;;5050784;28;51202;-51
2022/03/16 09:46:46;;;;;;;;;16.25;10.50;;;;;;;;5047835;28;51231;-48
2022/03/16 09:49:31;;;;;;;;;22.00;14.75;;;;;;;;5061133;28;51193;-50
2022/03/16 09:52:15;;;;;;;;;16.25;11.25;;;;;;;;5061193;28;51040;-50
2022/03/16 09:55:05;;;;;;;;;13.00;5.75;;;;;;;;5060003;28;51231;-51
2022/03/16 09:57:52;;;;;;;;;19.00;13.00;;;;;;;;5060993;28;51143;-52
2022/03/16 10:01:05;;;;;;;;;13.00;10.00;;;;;;;;5060947;28;51144;-48
2022/03/16 10:03:50;;;;;;;;;16.00;7.50;;;;;;;;5056049;28;51076;-50
2022/03/16 10:06:40;;;;;;;;;11.50;8.00;;;;;;;;5060651;28;51069;-48
2022/03/16 10:15:47;;;;;;;;;11.00;7.00;;;;;;;;5081660;27;51154;-48
2022/03/16 10:18:52;;;;;;;;;10.25;6.00;;;;;;;;5058784;27;51137;-48
2022/03/16 10:21:48;;;;;;;;;7.50;2.75;;;;;;;;5060068;28;51060;-46
2022/03/16 10:24:41;;;;;;;;;14.50;7.00;;;;;;;;5056414;28;51340;-55
2022/03/16 10:27:30;;;;;;;;;12.75;6.50;;;;;;;;5074736;27;51145;-44
2022/03/16 10:30:21;;;;;;;;;15.75;10.75;;;;;;;;5062066;27;51053;-44
2022/03/16 10:33:10;;;;;;;;;8.25;7.00;;;;;;;;5057792;27;51083;-47
2022/03/16 10:36:11;;;;;;;;;9.75;6.00;;;;;;;;5056770;28;51538;-49
2022/03/16 10:38:57;;;;;;;;;12.25;6.50;;;;;;;;5060346;28;51166;-51
2022/03/16 10:47:52;;;;;;;;;10.75;6.75;;;;;;;;5058909;28;51106;-51
2022/03/16 10:50:44;;;;;;;;;11.25;8.00;;;;;;;;5059173;28;51418;-52
2022/03/16 10:53:30;;;;;;;;;18.75;9.50;;;;;;;;5056517;28;51102;-53
2022/03/16 10:56:16;;;;;;;;;8.75;4.75;;;;;;;;5064552;27;51153;-48
2022/03/16 10:59:02;;;;;;;;;6.00;5.00;;;;;;;;5067568;27;51186;-48
2022/03/16 11:01:48;;;;;;;;;9.75;4.00;;;;;;;;5060318;28;51114;-50
2022/03/16 11:04:39;;;;;;;;;10.50;4.50;;;;;;;;5059589;28;51054;-49
2022/03/16 11:07:27;;;;;;;;;15.25;5.75;;;;;;;;5055015;28;51289;-48
2022/03/16 11:10:22;;;;;;;;;11.00;8.50;;;;;;;;5074011;27;51228;-49
2022/03/16 11:16:10;;;;;;;;;7.25;2.00;;;;;;;;5047063;27;51528;-50
2022/03/16 11:18:54;;;;;;;;;8.50;4.25;;;;;;;;5048075;28;51198;-50
2022/03/16 11:21:58;;;;;;;;;9.25;4.50;;;;;;;;5055928;28;51169;-50
2022/03/16 11:24:44;;;;;;;;;11.25;5.50;;;;;;;;5047374;27;51323;-48
2022/03/16 11:27:40;;;;;;;;;8.00;5.00;;;;;;;;5045974;28;51457;-46
2022/03/16 11:30:33;;;;;;;;;13.75;6.25;;;;;;;;5047974;28;51178;-51
2022/03/16 11:33:18;;;;;;;;;7.25;3.75;;;;;;;;5045220;28;51126;-53
2022/03/16 11:36:05;;;;;;;;;11.75;6.00;;;;;;;;5051544;28;51535;-55
2022/03/16 11:38:56;;;;;;;;;3.75;2.00;;;;;;;;5047985;28;51050;-50
2022/03/16 11:41:48;;;;;;;;;9.50;3.00;;;;;;;;5038658;28;51530;-55
2022/03/16 11:44:35;;;;;;;;;11.25;7.50;;;;;;;;5049757;28;51173;-54
2022/03/16 11:47:23;;;;;;;;;6.75;3.75;;;;;;;;5058593;28;51158;-54
2022/03/16 11:50:13;;;;;;;;;7.50;5.25;;;;;;;;5055681;27;51145;-51
2022/03/16 11:53:17;;;;;;;;;9.00;4.00;;;;;;;;5052786;28;51503;-57
2022/03/16 11:56:20;;;;;;;;;13.50;6.75;;;;;;;;5049967;28;51221;-54
2022/03/16 11:59:23;;;;;;;;;7.00;4.50;;;;;;;;5055300;28;51233;-55
2022/03/16 12:02:13;;;;;;;;;8.75;4.50;;;;;;;;5057739;27;51537;-53
2022/03/16 12:05:01;;;;;;;;;10.25;6.00;;;;;;;;5078849;27;51047;-54
2022/03/16 12:08:06;;;;;;;;;9.75;4.50;;;;;;;;5079127;27;51206;-54
2022/03/16 12:14:18;;;;;;;;;9.00;5.75;;;;;;;;5054656;27;51164;-55
2022/03/16 12:17:14;;;;;;;;;9.75;4.75;;;;;;;;5058318;28;51355;-55
2022/03/16 12:20:06;;;;;;;;;11.25;4.50;;;;;;;;5065947;27;51454;-53
2022/03/16 12:23:00;;;;;;;;;12.25;8.00;;;;;;;;5078363;27;51089;-55
2022/03/16 12:25:54;;;;;;;;;13.75;7.50;;;;;;;;5059159;28;51157;-55
2022/03/16 12:28:55;;;;;;;;;8.50;5.75;;;;;;;;5056906;28;51545;-52
2022/03/16 12:31:42;;;;;;;;;10.75;7.00;;;;;;;;5047731;28;51065;-56
2022/03/16 12:34:30;;;;;;;;;6.00;4.75;;;;;;;;5058032;28;51439;-48
2022/03/16 12:37:15;;;;;;;;;13.25;6.25;;;;;;;;5048959;28;51106;-49
2022/03/16 12:39:59;;;;;;;;;13.75;5.50;;;;;;;;5077839;27;51511;-48
2022/03/16 12:43:06;;;;;;;;;8.75;4.75;;;;;;;;5057656;28;51215;-48
2022/03/16 12:46:00;;;;;;;;;11.25;6.50;;;;;;;;5058288;28;51421;-52
2022/03/16 12:48:57;;;;;;;;;10.75;5.50;;;;;;;;5052676;28;51141;-46
2022/03/16 12:51:46;;;;;;;;;10.75;4.50;;;;;;;;5050752;28;51062;-53
2022/03/16 12:54:31;;;;;;;;;14.00;5.00;;;;;;;;5046573;28;51343;-56
2022/03/16 12:57:19;;;;;;;;;9.25;5.25;;;;;;;;5050171;28;51230;-49
2022/03/16 13:00:13;;;;;;;;;9.00;6.25;;;;;;;;5054523;28;51083;-51
2022/03/16 13:03:14;;;;;;;;;8.75;6.25;;;;;;;;5055962;28;51064;-51
2022/03/16 13:05:59;;;;;;;;;11.50;6.75;;;;;;;;5053855;28;51073;-47
2022/03/16 13:08:51;;;;;;;;;10.50;5.25;;;;;;;;5056292;28;51482;-50
2022/03/16 13:11:35;;;;;;;;;6.25;5.75;;;;;;;;5062355;28;51306;-50
2022/03/16 13:14:23;;;;;;;;;8.25;6.75;;;;;;;;5061574;28;51130;-49
2022/03/16 13:17:08;;;;;;;;;6.50;4.75;;;;;;;;5061685;28;51342;-49
2022/03/16 13:19:55;;;;;;;;;10.25;6.25;;;;;;;;5055599;28;51189;-51
2022/03/16 13:22:40;;;;;;;;;8.50;5.75;;;;;;;;5060690;28;51191;-52
2022/03/16 13:25:25;;;;;;;;;11.25;5.00;;;;;;;;5062308;28;51004;-52
2022/03/16 13:28:12;;;;;;;;;6.75;3.75;;;;;;;;5055879;28;50996;-51
2022/03/16 13:30:57;;;;;;;;;9.75;6.00;;;;;;;;5076301;27;51113;-47
2022/03/16 13:33:44;;;;;;;;;11.25;6.00;;;;;;;;5081722;27;51186;-54
2022/03/16 13:36:35;;;;;;;;;9.50;4.75;;;;;;;;5081869;27;51073;-48
2022/03/16 13:39:26;;;;;;;;;13.75;5.25;;;;;;;;5068943;27;51107;-50
2022/03/16 13:42:14;;;;;;;;;7.75;4.50;;;;;;;;5082045;27;51061;-52
2022/03/16 13:45:17;;;;;;;;;10.50;5.50;;;;;;;;5081835;27;51149;-47
2022/03/16 13:48:07;;;;;;;;;10.50;6.75;;;;;;;;5071331;27;51104;-50
2022/03/16 13:50:58;;;;;;;;;7.50;4.00;;;;;;;;5060467;28;51363;-47
2022/03/16 13:53:49;;;;;;;;;12.00;5.25;;;;;;;;5061046;28;51103;-47
2022/03/16 13:56:36;;;;;;;;;14.25;6.75;;;;;;;;5060935;28;51214;-48
2022/03/16 13:59:29;;;;;;;;;8.25;5.25;;;;;;;;5054352;28;51000;-50
2022/03/16 14:02:23;;;;;;;;;7.75;6.00;;;;;;;;5060362;28;51387;-50
2022/03/16 14:05:13;;;;;;;;;9.00;4.25;;;;;;;;5052326;28;51225;-48
2022/03/16 14:08:06;;;;;;;;;11.50;6.50;;;;;;;;5059668;28;51202;-47
2022/03/16 14:10:50;;;;;;;;;13.00;7.25;;;;;;;;5059842;28;51506;-46
2022/03/16 14:13:42;;;;;;;;;8.00;4.00;;;;;;;;5060570;28;51106;-46
2022/03/16 14:16:32;;;;;;;;;7.75;5.00;;;;;;;;5059223;28;51322;-45
2022/03/16 14:19:39;;;;;;;;;9.75;6.00;;;;;;;;5060321;28;51484;-48
2022/03/16 14:22:24;;;;;;;;;8.00;2.25;;;;;;;;5059406;28;51146;-47
2022/03/16 14:25:33;;;;;;;;;11.00;4.50;;;;;;;;5060544;28;51001;-51
2022/03/16 14:28:19;;;;;;;;;11.75;8.50;;;;;;;;5060376;28;51295;-49
2022/03/16 14:31:04;;;;;;;;;7.75;5.50;;;;;;;;5057678;28;51138;-54
2022/03/16 14:33:49;;;;;;;;;7.00;5.25;;;;;;;;5057322;28;51235;-51
2022/03/16 14:36:33;;;;;;;;;6.25;3.75;;;;;;;;5054720;28;51204;-51
2022/03/16 14:39:19;;;;;;;;;11.00;7.50;;;;;;;;5059916;28;51151;-55
2022/03/16 14:42:04;;;;;;;;;10.25;4.75;;;;;;;;5055744;28;51261;-50
2022/03/16 14:44:54;;;;;;;;;3.50;0.00;;;;;;;;5060582;28;51021;-48
2022/03/16 14:47:39;;;;;;;;;11.00;3.75;;;;;;;;5068134;27;51593;-53
2022/03/16 14:50:29;;;;;;;;;11.00;6.00;;;;;;;;5094050;27;51142;-48
2022/03/16 14:53:15;;;;;;;;;9.75;5.50;;;;;;;;5063073;27;51145;-48
2022/03/16 14:55:59;;;;;;;;;11.25;5.00;;;;;;;;5055093;27;51066;-49
2022/03/16 14:58:49;;;;;;;;;5.00;4.00;;;;;;;;5055812;28;51135;-48
2022/03/16 15:01:36;;;;;;;;;7.25;4.25;;;;;;;;5057112;28;51487;-48
2022/03/16 15:04:22;;;;;;;;;10.50;5.50;;;;;;;;5060748;28;51134;-53
2022/03/16 15:07:19;;;;;;;;;8.00;5.25;;;;;;;;5063034;27;51063;-54
2022/03/16 15:10:05;;;;;;;;;9.00;4.25;;;;;;;;5054094;28;51562;-52
2022/03/16 15:12:57;;;;;;;;;5.75;2.50;;;;;;;;5060577;27;51112;-49
2022/03/16 15:15:45;;;;;;;;;4.75;4.00;;;;;;;;5063914;27;51069;-50
2022/03/16 15:18:32;;;;;;;;;7.00;3.75;;;;;;;;5080628;27;51365;-49
2022/03/16 15:21:28;;;;;;;;;7.25;5.75;;;;;;;;5065989;27;51024;-50
2022/03/16 15:24:15;;;;;;;;;9.25;5.25;;;;;;;;5060645;28;50999;-49
2022/03/16 15:27:00;;;;;;;;;10.25;5.50;;;;;;;;5059029;28;51501;-50
2022/03/16 15:29:45;;;;;;;;;9.25;3.50;;;;;;;;5060425;28;51153;-51
2022/03/16 15:32:34;;;;;;;;;4.75;2.00;;;;;;;;5065015;27;51211;-50
2022/03/16 15:35:26;;;;;;;;;8.25;5.00;;;;;;;;5055543;27;51079;-46
2022/03/16 15:38:19;;;;;;;;;9.75;6.00;;;;;;;;5048493;27;51258;-48
2022/03/16 15:44:13;;;;;;;;;8.00;6.00;;;;;;;;5048021;27;51433;-48
2022/03/16 15:46:58;;;;;;;;;4.75;4.75;;;;;;;;5057261;27;51234;-50
2022/03/16 15:49:47;;;;;;;;;9.50;6.00;;;;;;;;5061098;27;51166;-47
2022/03/16 15:52:34;;;;;;;;;8.75;4.25;;;;;;;;5043831;28;51728;-51
2022/03/16 15:55:21;;;;;;;;;14.25;5.00;;;;;;;;5042044;28;51347;-49
2022/03/16 15:58:07;;;;;;;;;8.00;5.25;;;;;;;;5064192;27;51022;-52
2022/03/16 16:01:00;;;;;;;;;10.75;4.00;;;;;;;;5059722;28;51114;-54
2022/03/16 16:03:46;;;;;;;;;8.50;7.00;;;;;;;;5059387;28;51480;-48
2022/03/16 16:06:46;;;;;;;;;9.00;5.50;;;;;;;;5051439;28;51119;-49
2022/03/16 16:09:31;;;;;;;;;9.00;5.75;;;;;;;;5050760;28;51188;-48
2022/03/16 16:12:17;;;;;;;;;8.00;5.75;;;;;;;;5062887;27;51081;-47
2022/03/16 16:15:05;;;;;;;;;9.75;4.50;;;;;;;;5047993;28;51131;-49
2022/03/16 16:17:57;;;;;;;;;10.75;6.00;;;;;;;;5055574;28;51334;-47
2022/03/16 16:20:42;;;;;;;;;7.25;5.50;;;;;;;;5057054;27;51473;-46
2022/03/16 16:23:27;;;;;;;;;7.75;5.50;;;;;;;;5057095;27;51153;-48
2022/03/16 16:26:13;;;;;;;;;8.25;6.75;;;;;;;;5064056;27;51220;-49
2022/03/16 16:29:15;;;;;;;;;9.75;6.00;;;;;;;;5042795;28;51579;-49
2022/03/16 16:31:59;;;;;;;;;24.00;21.25;;;;;;;;5047509;27;51131;-49
2022/03/16 16:34:50;;;;;;;;;10.00;7.00;;;;;;;;5058278;27;51521;-49
2022/03/16 16:37:35;;;;;;;;;14.25;7.25;;;;;;;;5056799;27;51344;-48
2022/03/16 16:40:27;;;;;;;;;16.25;8.25;;;;;;;;5047072;28;51092;-51
2022/03/16 16:43:13;;;;;;;;;11.75;6.25;;;;;;;;5042135;28;50998;-50
2022/03/16 16:45:59;;;;;;;;;21.75;14.50;;;;;;;;5053627;28;51318;-47
2022/03/16 16:48:44;;;;;;;;;12.50;8.00;;;;;;;;5057131;28;51130;-49
2022/03/16 16:51:35;;;;;;;;;12.25;8.00;;;;;;;;5056703;28;51090;-51
2022/03/16 16:54:21;;;;;;;;;12.25;9.00;;;;;;;;5057429;28;51496;-52
2022/03/16 16:57:12;;;;;;;;;14.00;6.00;;;;;;;;5056155;28;51116;-48